createdAt,value
2023-11-11T00:01:49.200Z,2.40
2023-11-11T00:04:16.260Z,2.20
2023-11-11T00:06:43.500Z,1.90
2023-11-11T00:09:14.502Z,2.30
2023-11-11T00:11:41.691Z,2.60
2023-11-11T00:14:11.216Z,2.80
2023-11-11T00:16:38.488Z,2.50
2023-11-11T00:19:05.402Z,1.90
2023-11-11T00:21:32.485Z,1.80
2023-11-11T00:23:59.387Z,2.00
2023-11-11T00:26:26.636Z,2.00
2023-11-11T00:28:53.689Z,2.30
2023-11-11T00:31:20.553Z,2.10
2023-11-11T00:33:47.517Z,1.90
2023-11-11T00:36:16.982Z,1.60
2023-11-11T00:38:43.848Z,2.60
2023-11-11T00:41:10.667Z,2.70
2023-11-11T00:43:37.713Z,2.10
2023-11-11T00:46:04.888Z,1.80
2023-11-11T00:48:32.044Z,2.30
2023-11-11T00:51:01.719Z,2.00
2023-11-11T00:53:28.621Z,2.00
2023-11-11T00:55:55.960Z,2.80
2023-11-11T00:58:22.968Z,2.50
2023-11-11T01:00:49.808Z,2.00
2023-11-11T01:03:16.784Z,2.40
2023-11-11T01:05:43.905Z,2.40
2023-11-11T01:08:11.057Z,2.20
2023-11-11T01:10:38.742Z,2.10
2023-11-11T01:13:06.897Z,2.20
2023-11-11T01:15:34.959Z,2.40
2023-11-11T01:18:02.032Z,1.80
2023-11-11T01:20:29.057Z,2.20
2023-11-11T01:22:56.719Z,2.00
2023-11-11T01:25:23.671Z,2.10
2023-11-11T01:27:50.715Z,3.00
2023-11-11T01:30:20.222Z,2.90
2023-11-11T01:32:47.292Z,2.60
2023-11-11T01:35:14.314Z,2.50
2023-11-11T01:37:41.269Z,2.60
2023-11-11T01:40:08.724Z,2.40
2023-11-11T01:42:35.808Z,2.30
2023-11-11T01:45:03.121Z,2.60
2023-11-11T01:47:30.502Z,3.10
2023-11-11T01:49:58.378Z,2.70
2023-11-11T01:52:26.007Z,3.00
2023-11-11T01:54:53.239Z,2.60
2023-11-11T01:57:21.120Z,2.90
2023-11-11T01:59:48.379Z,3.50
2023-11-11T02:02:16.284Z,3.00
2023-11-11T02:04:43.472Z,3.10
2023-11-11T02:07:10.539Z,3.10
2023-11-11T02:09:38.422Z,2.70
2023-11-11T02:12:06.162Z,2.80
2023-11-11T02:14:38.023Z,3.10
2023-11-11T02:17:05.902Z,3.50
2023-11-11T02:19:32.841Z,3.90
2023-11-11T02:21:59.577Z,3.00
2023-11-11T02:24:27.919Z,2.50
2023-11-11T02:26:55.217Z,2.70
2023-11-11T02:29:22.257Z,2.80
2023-11-11T02:31:49.106Z,3.30
2023-11-11T02:34:16.868Z,3.50
2023-11-11T02:36:53.920Z,3.80
2023-11-11T02:39:27.779Z,4.20
2023-11-11T02:41:54.704Z,4.20
2023-11-11T02:44:21.546Z,5.50
2023-11-11T02:46:48.813Z,4.70
2023-11-11T02:49:16.094Z,5.20
2023-11-11T02:51:43.034Z,5.00
2023-11-11T02:54:09.988Z,6.50
2023-11-11T02:56:37.198Z,5.70
2023-11-11T02:59:04.137Z,6.30
2023-11-11T03:01:41.878Z,5.70
2023-11-11T03:04:09.276Z,6.40
2023-11-11T03:06:42.730Z,6.60
2023-11-11T03:09:13.357Z,7.40
2023-11-11T03:11:40.891Z,6.50
2023-11-11T03:14:07.945Z,6.20
2023-11-11T03:16:39.596Z,6.30
2023-11-11T03:19:07.582Z,6.30
2023-11-11T03:21:35.066Z,6.10
2023-11-11T03:24:02.979Z,6.60
2023-11-11T03:26:30.038Z,6.60
2023-11-11T03:28:57.080Z,6.20
2023-11-11T03:31:24.157Z,6.20
2023-11-11T03:33:51.421Z,7.20
2023-11-11T03:36:18.433Z,6.70
2023-11-11T03:38:45.383Z,6.20
2023-11-11T03:41:12.234Z,7.00
2023-11-11T03:43:39.693Z,6.70
2023-11-11T03:46:06.800Z,6.70
2023-11-11T03:48:33.793Z,6.60
2023-11-11T03:51:00.844Z,6.70
2023-11-11T03:53:27.860Z,6.40
2023-11-11T03:55:54.918Z,6.30
2023-11-11T03:58:23.593Z,7.20
2023-11-11T04:00:51.098Z,7.00
2023-11-11T04:03:18.506Z,6.70
2023-11-11T04:05:47.056Z,7.10
2023-11-11T04:08:15.053Z,7.00
2023-11-11T04:10:41.900Z,7.00
2023-11-11T04:13:10.079Z,6.60
2023-11-11T04:15:37.601Z,6.90
2023-11-11T04:18:04.638Z,6.30
2023-11-11T04:20:31.954Z,7.40
2023-11-11T04:22:59.920Z,6.40
2023-11-11T04:25:26.855Z,6.30
2023-11-11T04:27:54.326Z,6.00
2023-11-11T04:30:21.535Z,6.50
2023-11-11T04:32:48.568Z,6.20
2023-11-11T04:35:15.453Z,5.70
2023-11-11T04:37:42.506Z,5.70
2023-11-11T04:40:11.289Z,6.30
2023-11-11T04:42:39.493Z,6.80
2023-11-11T04:45:07.432Z,6.70
2023-11-11T04:47:34.289Z,7.30
2023-11-11T04:50:02.145Z,10.80
2023-11-11T04:52:31.861Z,9.50
2023-11-11T04:54:58.800Z,9.10
2023-11-11T04:57:25.892Z,8.40
2023-11-11T04:59:52.901Z,6.50
2023-11-11T05:02:19.835Z,6.00
2023-11-11T05:04:46.994Z,6.60
2023-11-11T05:07:14.031Z,7.50
2023-11-11T05:09:41.205Z,6.00
2023-11-11T05:12:09.458Z,5.50
2023-11-11T05:14:37.118Z,6.50
2023-11-11T05:17:08.341Z,5.80
2023-11-11T05:19:35.512Z,5.70
2023-11-11T05:22:06.775Z,6.10
2023-11-11T05:24:33.724Z,5.80
2023-11-11T05:27:00.861Z,5.90
2023-11-11T05:29:27.814Z,6.20
2023-11-11T05:31:54.760Z,6.30
2023-11-11T05:34:21.799Z,5.70
2023-11-11T05:36:50.925Z,6.30
2023-11-11T05:39:17.751Z,6.40
2023-11-11T05:41:44.695Z,5.70
2023-11-11T05:44:11.624Z,5.90
2023-11-11T05:46:40.376Z,6.00
2023-11-11T05:49:07.695Z,6.10
2023-11-11T05:51:34.735Z,21.90
2023-11-11T05:54:02.683Z,324.90
2023-11-11T05:56:29.833Z,74.10
2023-11-11T05:58:59.649Z,46.50
2023-11-11T06:01:27.208Z,277.50
2023-11-11T06:03:54.194Z,672.60
2023-11-11T06:06:21.166Z,292.60
2023-11-11T06:08:48.662Z,557.20
2023-11-11T06:11:16.732Z,32.70
2023-11-11T06:13:43.675Z,269.50
2023-11-11T06:16:10.595Z,336.20
2023-11-11T06:18:37.586Z,413.20
2023-11-11T06:21:08.748Z,266.90
2023-11-11T06:26:08.486Z,108.50
2023-11-11T06:28:35.407Z,77.60
2023-11-11T06:31:02.631Z,122.80
2023-11-11T06:33:29.967Z,457.80
2023-11-11T06:35:59.336Z,269.10
2023-11-11T06:38:26.358Z,134.60
2023-11-11T06:40:53.207Z,125.40
2023-11-11T06:43:20.154Z,171.30
2023-11-11T06:45:48.141Z,223.10
2023-11-11T06:48:17.003Z,318.00
2023-11-11T06:50:43.936Z,323.20
2023-11-11T06:53:12.614Z,64.70
2023-11-11T06:55:39.577Z,66.30
2023-11-11T06:58:07.980Z,146.70
2023-11-11T07:00:35.220Z,71.30
2023-11-11T07:03:03.684Z,196.20
2023-11-11T07:05:30.751Z,179.90
2023-11-11T07:07:57.678Z,389.90
2023-11-11T07:10:24.612Z,175.00
2023-11-11T07:12:52.342Z,131.80
2023-11-11T07:15:22.027Z,191.60
2023-11-11T07:17:49.222Z,717.60
2023-11-11T07:20:19.761Z,362.30
2023-11-11T07:22:46.713Z,539.70
2023-11-11T07:25:13.756Z,266.50
2023-11-11T07:27:40.650Z,275.20
2023-11-11T07:30:10.948Z,409.10
2023-11-11T07:32:44.535Z,317.00
2023-11-11T07:35:17.721Z,405.70
2023-11-11T07:37:47.329Z,134.90
2023-11-11T07:40:17.355Z,656.30
2023-11-11T07:42:44.338Z,346.10
2023-11-11T07:45:12.165Z,737.80
2023-11-11T07:47:42.247Z,444.80
2023-11-11T07:50:10.357Z,605.90
2023-11-11T07:52:37.101Z,135.80
2023-11-11T07:55:05.914Z,327.00
2023-11-11T08:00:07.129Z,165.50
2023-11-11T08:02:36.604Z,87.90
2023-11-11T08:05:04.449Z,620.90
2023-11-11T08:07:31.462Z,130.90
2023-11-11T08:09:58.398Z,126.30
2023-11-11T08:12:25.361Z,132.00
2023-11-11T08:14:53.105Z,202.00
2023-11-11T08:17:20.219Z,57.30
2023-11-11T08:19:47.732Z,97.50
2023-11-11T08:22:14.679Z,213.80
2023-11-11T08:24:41.750Z,171.10
2023-11-11T08:27:09.782Z,41.20
2023-11-11T08:29:37.130Z,87.50
2023-11-11T08:32:04.794Z,72.60
2023-11-11T08:34:31.843Z,64.40
2023-11-11T08:36:58.934Z,50.30
2023-11-11T08:39:25.972Z,54.60
2023-11-11T08:41:52.985Z,77.30
2023-11-11T08:44:20.673Z,110.90
2023-11-11T08:46:48.064Z,38.60
2023-11-11T08:49:15.308Z,52.20
2023-11-11T08:51:42.319Z,71.50
2023-11-11T08:54:09.545Z,199.30
2023-11-11T08:56:36.488Z,89.10
2023-11-11T08:59:04.811Z,110.90
2023-11-11T09:01:33.711Z,55.40
2023-11-11T09:04:01.149Z,11.30
2023-11-11T09:06:28.706Z,7.70
2023-11-11T09:08:57.466Z,12.50
2023-11-11T09:11:25.942Z,12.30
2023-11-11T09:13:53.306Z,7.30
2023-11-11T09:16:20.291Z,6.10
2023-11-11T09:18:48.039Z,9.50
2023-11-11T09:21:15.674Z,8.00
2023-11-11T09:23:42.946Z,4.20
2023-11-11T09:26:09.972Z,10.70
2023-11-11T09:28:37.834Z,15.20
2023-11-11T09:31:05.054Z,4.40
2023-11-11T09:33:32.205Z,7.40
2023-11-11T09:35:58.912Z,7.40
2023-11-11T09:38:26.040Z,7.20
2023-11-11T09:41:11.041Z,5.80
2023-11-11T09:43:38.040Z,6.20
2023-11-11T09:46:09.750Z,4.60
2023-11-11T09:48:36.953Z,4.00
2023-11-11T09:51:07.442Z,6.50
2023-11-11T09:53:36.208Z,4.50
2023-11-11T09:56:05.696Z,3.40
2023-11-11T09:58:34.689Z,4.30
2023-11-11T10:01:01.482Z,6.10
2023-11-11T10:03:29.865Z,10.60
2023-11-11T10:05:58.267Z,7.70
2023-11-11T10:08:25.721Z,6.50
2023-11-11T10:10:53.405Z,6.60
2023-11-11T10:13:21.899Z,13.90
2023-11-11T10:15:49.162Z,10.30
2023-11-11T10:18:16.882Z,7.50
2023-11-11T10:20:47.699Z,5.00
2023-11-11T10:23:16.510Z,5.30
2023-11-11T10:25:43.996Z,5.60
2023-11-11T10:28:16.784Z,4.50
2023-11-11T10:30:44.002Z,5.30
2023-11-11T10:33:12.550Z,6.00
2023-11-11T10:35:40.668Z,4.90
2023-11-11T10:38:08.553Z,5.20
2023-11-11T10:40:35.634Z,5.00
2023-11-11T10:43:05.066Z,4.70
2023-11-11T10:45:33.755Z,6.10
2023-11-11T10:48:01.941Z,5.70
2023-11-11T10:50:31.238Z,3.90
2023-11-11T10:55:27.573Z,5.40
2023-11-11T10:57:57.198Z,5.30
2023-11-11T11:00:25.259Z,6.70
2023-11-11T11:02:54.753Z,7.50
2023-11-11T11:05:59.602Z,22.80
2023-11-11T11:08:35.765Z,12.50
2023-11-11T11:11:29.028Z,8.30
2023-11-11T11:14:08.612Z,7.10
2023-11-11T11:16:39.110Z,16.20
2023-11-11T11:19:08.548Z,11.00
2023-11-11T11:24:10.169Z,5.80
2023-11-11T11:26:37.421Z,8.10
2023-11-11T11:29:14.445Z,7.00
2023-11-11T11:32:04.129Z,9.80
2023-11-11T11:34:31.258Z,6.20
2023-11-11T11:36:58.274Z,7.00
2023-11-11T11:39:51.335Z,6.20
2023-11-11T11:42:20.982Z,5.40
2023-11-11T11:44:58.758Z,5.90
2023-11-11T11:47:33.480Z,5.70
2023-11-11T11:50:01.672Z,5.30
2023-11-11T11:52:28.830Z,5.80
2023-11-11T11:54:56.566Z,6.20
2023-11-11T11:57:28.318Z,4.70
2023-11-11T12:00:14.444Z,5.50
2023-11-11T12:02:41.916Z,4.90
2023-11-11T12:05:09.819Z,5.20
2023-11-11T12:07:38.857Z,8.80
2023-11-11T12:10:07.820Z,9.30
2023-11-11T12:12:35.029Z,6.90
2023-11-11T12:15:12.796Z,6.50
2023-11-11T12:17:43.243Z,4.40
2023-11-11T12:20:15.065Z,6.00
2023-11-11T12:22:43.797Z,5.20
2023-11-11T12:25:11.506Z,5.60
2023-11-11T12:27:38.570Z,6.20
2023-11-11T12:30:22.535Z,7.20
2023-11-11T12:33:11.683Z,8.20
2023-11-11T12:35:41.729Z,5.80
2023-11-11T12:38:24.538Z,5.10
2023-11-11T12:40:56.189Z,3.90
2023-11-11T12:43:25.172Z,2.30
2023-11-11T12:45:55.732Z,2.60
2023-11-11T12:48:29.696Z,2.30
2023-11-11T12:50:57.874Z,3.40
2023-11-11T12:53:24.735Z,4.40
2023-11-11T12:56:12.454Z,4.90
2023-11-11T12:58:39.239Z,4.60
2023-11-11T13:01:06.930Z,4.60
2023-11-11T13:03:34.694Z,4.00
2023-11-11T13:06:06.425Z,4.50
2023-11-11T13:08:35.362Z,4.60
2023-11-11T13:11:03.229Z,5.60
2023-11-11T13:13:30.824Z,6.60
2023-11-11T13:16:00.828Z,4.40
2023-11-11T13:18:27.958Z,5.10
2023-11-11T13:20:59.549Z,5.10
2023-11-11T13:23:30.238Z,4.30
2023-11-11T13:25:57.702Z,5.50
2023-11-11T13:28:25.040Z,6.10
2023-11-11T13:30:54.455Z,5.00
2023-11-11T13:33:21.678Z,5.10
2023-11-11T13:35:51.518Z,5.00
2023-11-11T13:38:21.174Z,3.10
2023-11-11T13:43:17.789Z,4.70
2023-11-11T13:45:47.478Z,4.90
2023-11-11T13:48:15.022Z,5.20
2023-11-11T13:50:41.925Z,5.30
2023-11-11T13:53:09.871Z,4.60
2023-11-11T13:55:37.139Z,4.00
2023-11-11T13:58:04.173Z,4.80
2023-11-11T14:00:31.936Z,3.90
2023-11-11T14:03:02.772Z,6.00
2023-11-11T14:05:30.154Z,5.00
2023-11-11T14:07:57.068Z,4.80
2023-11-11T14:10:28.367Z,4.60
2023-11-11T14:12:56.532Z,3.90
2023-11-11T14:15:30.937Z,2.80
2023-11-11T14:17:58.330Z,2.90
2023-11-11T14:20:29.510Z,2.60
2023-11-11T14:23:01.253Z,2.70
2023-11-11T14:25:28.871Z,2.90
2023-11-11T14:27:56.604Z,4.80
2023-11-11T14:30:26.597Z,4.90
2023-11-11T14:32:56.833Z,3.40
2023-11-11T14:35:24.146Z,2.80
2023-11-11T14:37:55.689Z,5.00
2023-11-11T14:40:23.651Z,6.30
2023-11-11T14:42:55.429Z,4.40
2023-11-11T14:45:23.565Z,3.10
2023-11-11T14:47:51.446Z,2.40
2023-11-11T14:50:20.878Z,3.30
2023-11-11T14:52:51.601Z,3.50
2023-11-11T14:55:18.834Z,4.60
2023-11-11T14:57:47.808Z,5.10
2023-11-11T15:00:27.741Z,10.60
2023-11-11T15:02:56.319Z,22.70
2023-11-11T15:05:23.929Z,8.70
2023-11-11T15:07:51.913Z,18.70
2023-11-11T15:10:20.430Z,8.50
2023-11-11T15:12:51.682Z,62.60
2023-11-11T15:15:19.770Z,60.10
2023-11-11T15:17:47.282Z,21.40
2023-11-11T15:20:16.303Z,7.10
2023-11-11T15:22:46.553Z,7.00
2023-11-11T15:25:15.913Z,4.20
2023-11-11T15:27:43.696Z,6.00
2023-11-11T15:30:15.769Z,7.90
2023-11-11T15:32:42.939Z,7.60
2023-11-11T15:35:10.680Z,13.00
2023-11-11T15:37:38.266Z,8.30
2023-11-11T15:40:08.994Z,6.60
2023-11-11T15:42:36.844Z,11.30
2023-11-11T15:45:07.908Z,9.50
2023-11-11T15:47:35.157Z,10.20
2023-11-11T15:50:04.665Z,7.10
2023-11-11T15:52:31.960Z,8.70
2023-11-11T15:54:58.937Z,5.20
2023-11-11T15:57:25.996Z,4.40
2023-11-11T15:59:52.697Z,5.90
2023-11-11T16:02:19.732Z,6.10
2023-11-11T16:04:47.558Z,6.30
2023-11-11T16:07:14.893Z,5.80
2023-11-11T16:09:41.835Z,5.80
2023-11-11T16:12:12.270Z,5.90
2023-11-11T16:14:40.234Z,6.70
2023-11-11T16:17:07.641Z,7.40
2023-11-11T16:19:35.506Z,8.00
2023-11-11T16:22:04.146Z,7.90
2023-11-11T16:24:31.088Z,8.00
2023-11-11T16:26:57.929Z,8.60
2023-11-11T16:29:24.983Z,8.90
2023-11-11T16:31:52.211Z,8.50
2023-11-11T16:34:21.453Z,9.00
2023-11-11T16:36:48.498Z,9.20
2023-11-11T16:39:19.313Z,10.30
2023-11-11T16:41:49.815Z,8.80
2023-11-11T16:44:17.638Z,11.10
2023-11-11T16:46:44.463Z,10.10
2023-11-11T16:49:11.400Z,6.50
2023-11-11T16:51:38.240Z,5.30
2023-11-11T16:54:05.811Z,4.60
2023-11-11T16:56:32.851Z,5.40
2023-11-11T16:58:59.706Z,5.60
2023-11-11T17:01:26.851Z,5.30
2023-11-11T17:03:57.441Z,6.70
2023-11-11T17:06:24.861Z,6.50
2023-11-11T17:08:51.935Z,6.20
2023-11-11T17:11:18.818Z,7.60
2023-11-11T17:13:46.195Z,7.80
2023-11-11T17:16:13.123Z,9.60
2023-11-11T17:18:40.387Z,6.00
2023-11-11T17:21:07.839Z,6.50
2023-11-11T17:23:34.769Z,6.40
2023-11-11T17:26:01.607Z,6.90
2023-11-11T17:28:31.908Z,5.90
2023-11-11T17:30:59.073Z,10.20
2023-11-11T17:33:35.738Z,10.10
2023-11-11T17:36:09.050Z,8.80
2023-11-11T17:38:39.239Z,11.50
2023-11-11T17:41:12.604Z,10.00
2023-11-11T17:43:39.964Z,10.70
2023-11-11T17:46:07.419Z,8.70
2023-11-11T17:48:35.994Z,7.40
2023-11-11T17:51:05.347Z,9.10
2023-11-11T17:53:32.237Z,9.10
2023-11-11T17:56:00.710Z,10.50
2023-11-11T17:58:28.256Z,8.40
2023-11-11T18:00:55.401Z,8.30
2023-11-11T18:03:22.331Z,8.10
2023-11-11T18:05:51.142Z,7.90
2023-11-11T18:08:18.096Z,9.90
2023-11-11T18:10:44.929Z,9.50
2023-11-11T18:13:13.306Z,9.00
2023-11-11T18:15:40.148Z,8.20
2023-11-11T18:18:07.679Z,8.80
2023-11-11T18:20:34.671Z,8.90
2023-11-11T18:23:01.730Z,9.90
2023-11-11T18:25:28.765Z,10.40
2023-11-11T18:27:55.721Z,10.50
2023-11-11T18:30:23.667Z,9.90
2023-11-11T18:32:50.704Z,14.00
2023-11-11T18:35:17.880Z,14.60
2023-11-11T18:37:44.948Z,9.70
2023-11-11T18:40:12.567Z,9.70
2023-11-11T18:42:39.420Z,8.70
2023-11-11T18:45:09.743Z,9.70
2023-11-11T18:47:36.687Z,7.50
2023-11-11T18:50:16.172Z,7.50
2023-11-11T18:52:50.214Z,5.80
2023-11-11T18:55:17.175Z,7.30
2023-11-11T18:57:43.932Z,7.10
2023-11-11T19:00:12.444Z,6.90
2023-11-11T19:02:39.449Z,7.80
2023-11-11T19:05:10.216Z,6.70
2023-11-11T19:07:37.871Z,7.00
2023-11-11T19:10:08.361Z,7.50
2023-11-11T19:12:36.042Z,6.70
2023-11-11T19:15:04.519Z,6.40
2023-11-11T19:17:31.977Z,5.00
2023-11-11T19:19:59.770Z,5.60
2023-11-11T19:22:29.119Z,5.50
2023-11-11T19:24:58.268Z,5.00
2023-11-11T19:27:25.179Z,5.20
2023-11-11T19:29:52.403Z,6.00
2023-11-11T19:32:20.789Z,6.20
2023-11-11T19:34:48.140Z,5.70
2023-11-11T19:37:15.265Z,8.20
2023-11-11T19:39:42.366Z,6.90
2023-11-11T19:42:09.777Z,5.90
2023-11-11T19:44:36.893Z,4.50
2023-11-11T19:47:04.347Z,5.70
2023-11-11T19:49:31.271Z,5.40
2023-11-11T19:51:58.436Z,4.50
2023-11-11T19:54:25.516Z,5.10
2023-11-11T19:56:52.827Z,4.80
2023-11-11T19:59:19.693Z,4.50
2023-11-11T20:01:46.768Z,4.20
2023-11-11T20:04:13.980Z,4.50
2023-11-11T20:06:41.023Z,4.70
2023-11-11T20:09:08.883Z,4.20
2023-11-11T20:11:35.936Z,3.60
2023-11-11T20:14:03.042Z,4.00
2023-11-11T20:16:29.881Z,3.50
2023-11-11T20:18:56.875Z,3.70
2023-11-11T20:21:23.928Z,3.50
2023-11-11T20:23:50.978Z,4.10
2023-11-11T20:26:18.371Z,2.60
2023-11-11T20:28:45.411Z,2.80
2023-11-11T20:31:15.946Z,2.70
2023-11-11T20:33:42.840Z,2.40
2023-11-11T20:36:10.014Z,2.00
2023-11-11T20:38:38.683Z,2.50
2023-11-11T20:41:05.859Z,2.00
2023-11-11T20:43:36.282Z,2.10
2023-11-11T20:46:03.562Z,2.00
2023-11-11T20:48:30.556Z,1.90
2023-11-11T20:50:57.636Z,1.90
2023-11-11T20:53:24.552Z,2.00
2023-11-11T20:55:51.738Z,1.80
2023-11-11T20:58:20.089Z,1.70
2023-11-11T21:00:47.135Z,1.40
2023-11-11T21:03:14.629Z,1.20
2023-11-11T21:05:41.754Z,1.90
2023-11-11T21:08:09.246Z,1.40
2023-11-11T21:10:36.958Z,1.40
2023-11-11T21:13:04.207Z,1.30
2023-11-11T21:15:31.156Z,1.20
2023-11-11T21:17:58.638Z,1.50
2023-11-11T21:20:26.684Z,1.10
2023-11-11T21:22:53.755Z,1.20
2023-11-11T21:25:22.002Z,1.30
2023-11-11T21:27:49.388Z,1.30
2023-11-11T21:30:16.725Z,1.30
2023-11-11T21:32:44.073Z,1.30
2023-11-11T21:35:11.167Z,1.40
2023-11-11T21:37:38.339Z,1.50
2023-11-11T21:40:08.187Z,1.70
2023-11-11T21:42:35.026Z,1.30
2023-11-11T21:45:01.886Z,1.60
2023-11-11T21:47:29.061Z,1.40
2023-11-11T21:49:56.188Z,1.20
2023-11-11T21:52:23.635Z,1.60
2023-11-11T21:54:50.575Z,1.40
2023-11-11T21:57:17.713Z,1.50
2023-11-11T21:59:44.778Z,1.40
2023-11-11T22:02:11.799Z,1.50
2023-11-11T22:04:41.848Z,1.50
2023-11-11T22:07:08.785Z,1.40
2023-11-11T22:09:35.496Z,1.30
2023-11-11T22:12:06.859Z,1.50
2023-11-11T22:14:34.235Z,1.60
2023-11-11T22:17:01.438Z,1.60
2023-11-11T22:19:28.637Z,1.70
2023-11-11T22:21:55.486Z,1.60
2023-11-11T22:24:22.421Z,2.10
2023-11-11T22:26:50.895Z,1.60
2023-11-11T22:29:18.760Z,1.20
2023-11-11T22:31:45.760Z,1.40
2023-11-11T22:34:12.673Z,1.40
2023-11-11T22:36:39.901Z,1.50
2023-11-11T22:39:06.864Z,1.30
2023-11-11T22:41:36.251Z,1.60
2023-11-11T22:44:03.131Z,2.30
2023-11-11T22:46:30.182Z,1.80
2023-11-11T22:48:57.089Z,2.10
2023-11-11T22:51:24.039Z,2.10
2023-11-11T22:53:50.974Z,2.10
2023-11-11T22:56:18.056Z,2.00
2023-11-11T22:58:45.079Z,1.80
2023-11-11T23:01:12.423Z,1.60
2023-11-11T23:03:39.492Z,1.90
2023-11-11T23:06:06.550Z,1.90
2023-11-11T23:08:33.881Z,1.70
2023-11-11T23:11:01.478Z,2.00
2023-11-11T23:13:30.640Z,1.50
2023-11-11T23:15:57.802Z,1.60
2023-11-11T23:18:26.039Z,1.50
2023-11-11T23:21:03.498Z,1.30
2023-11-11T23:23:37.684Z,1.30
2023-11-11T23:26:08.945Z,1.50
2023-11-11T23:28:36.784Z,1.50
2023-11-11T23:31:07.235Z,1.80
2023-11-11T23:33:36.661Z,1.40
2023-11-11T23:36:04.481Z,1.10
2023-11-11T23:38:31.435Z,1.40
2023-11-11T23:40:58.715Z,1.30
2023-11-11T23:43:25.725Z,0.90
2023-11-11T23:45:52.577Z,1.40
2023-11-11T23:48:20.332Z,1.20
2023-11-11T23:50:47.480Z,1.50
2023-11-11T23:53:14.481Z,1.00
2023-11-11T23:55:42.543Z,1.00
2023-11-11T23:58:10.575Z,1.30
